sensor_id;sensor_type;location;lat;lon;timestamp;pressure;altitude;pressure_sealevel;temperature;humidity
6938;BME280;40040;42.706;23.372;2023-10-31T00:02:15;147006.75;;;11.50;100.00
6938;BME280;40040;42.706;23.372;2023-10-31T00:04:41;146959.84;;;11.30;100.00
6938;BME280;40040;42.706;23.372;2023-10-31T00:07:08;146956.16;;;11.29;100.00
6938;BME280;40040;42.706;23.372;2023-10-31T00:09:35;146994.41;;;11.45;100.00
6938;BME280;40040;42.706;23.372;2023-10-31T00:12:02;146995.66;;;11.45;100.00
6938;BME280;40040;42.706;23.372;2023-10-31T00:14:29;146994.41;;;11.45;100.00
6938;BME280;40040;42.706;23.372;2023-10-31T00:16:55;146977.13;;;11.38;100.00
6938;BME280;40040;42.706;23.372;2023-10-31T00:19:24;146996.88;;;11.46;100.00
6938;BME280;40040;42.706;23.372;2023-10-31T00:21:50;146988.22;;;11.42;100.00
6938;BME280;40040;42.706;23.372;2023-10-31T00:24:17;146969.75;;;11.34;100.00
6938;BME280;40040;42.706;23.372;2023-10-31T00:26:44;146966.03;;;11.33;100.00
6938;BME280;40040;42.706;23.372;2023-10-31T00:29:11;146930.22;;;11.18;100.00
6938;BME280;40040;42.706;23.372;2023-10-31T00:31:38;146938.88;;;11.22;100.00
6938;BME280;40040;42.706;23.372;2023-10-31T00:34:06;146890.72;;;11.02;100.00
6938;BME280;40040;42.706;23.372;2023-10-31T00:36:34;146894.41;;;11.04;100.00
6938;BME280;40040;42.706;23.372;2023-10-31T00:39:01;146899.38;;;11.06;100.00
6938;BME280;40040;42.706;23.372;2023-10-31T00:41:28;146873.44;;;10.95;100.00
6938;BME280;40040;42.706;23.372;2023-10-31T00:43:55;146869.75;;;10.94;100.00
6938;BME280;40040;42.706;23.372;2023-10-31T00:46:22;146888.28;;;11.01;100.00
6938;BME280;40040;42.706;23.372;2023-10-31T00:48:48;146888.28;;;11.01;100.00
6938;BME280;40040;42.706;23.372;2023-10-31T00:51:15;146880.84;;;10.98;100.00
6938;BME280;40040;42.706;23.372;2023-10-31T00:53:43;146880.84;;;10.98;100.00
6938;BME280;40040;42.706;23.372;2023-10-31T00:56:10;146856.16;;;10.88;100.00
6938;BME280;40040;42.706;23.372;2023-10-31T00:58:37;146858.66;;;10.89;100.00
6938;BME280;40040;42.706;23.372;2023-10-31T01:01:04;146856.16;;;10.88;100.00
6938;BME280;40040;42.706;23.372;2023-10-31T01:03:30;146856.16;;;10.88;100.00
6938;BME280;40040;42.706;23.372;2023-10-31T01:05:57;146850.03;;;10.86;100.00
6938;BME280;40040;42.706;23.372;2023-10-31T01:08:24;146819.16;;;10.73;100.00
6938;BME280;40040;42.706;23.372;2023-10-31T01:10:52;146826.56;;;10.76;100.00
6938;BME280;40040;42.706;23.372;2023-10-31T01:13:19;146833.94;;;10.79;100.00
6938;BME280;40040;42.706;23.372;2023-10-31T01:15:46;146833.94;;;10.79;100.00
6938;BME280;40040;42.706;23.372;2023-10-31T01:18:13;146824.09;;;10.75;100.00
6938;BME280;40040;42.706;23.372;2023-10-31T01:20:40;146814.22;;;10.71;100.00
6938;BME280;40040;42.706;23.372;2023-10-31T01:23:07;146809.28;;;10.69;100.00
6938;BME280;40040;42.706;23.372;2023-10-31T01:25:34;146803.13;;;10.67;100.00
6938;BME280;40040;42.706;23.372;2023-10-31T01:28:02;146794.50;;;10.63;100.00
6938;BME280;40040;42.706;23.372;2023-10-31T01:30:29;146782.16;;;10.58;100.00
6938;BME280;40040;42.706;23.372;2023-10-31T01:32:55;146756.25;;;10.48;100.00
6938;BME280;40040;42.706;23.372;2023-10-31T01:35:22;146743.88;;;10.43;100.00
6938;BME280;40040;42.706;23.372;2023-10-31T01:37:49;146741.44;;;10.42;100.00
6938;BME280;40040;42.706;23.372;2023-10-31T01:40:16;146700.75;;;10.25;100.00
6938;BME280;40040;42.706;23.372;2023-10-31T01:42:43;146727.84;;;10.36;100.00
6938;BME280;40040;42.706;23.372;2023-10-31T01:45:11;146717.97;;;10.32;100.00
6938;BME280;40040;42.706;23.372;2023-10-31T01:47:38;146727.84;;;10.36;100.00
6938;BME280;40040;42.706;23.372;2023-10-31T01:50:06;146714.28;;;10.31;100.00
6938;BME280;40040;42.706;23.372;2023-10-31T01:52:35;146714.28;;;10.31;100.00
6938;BME280;40040;42.706;23.372;2023-10-31T01:55:04;146727.84;;;10.36;100.00
6938;BME280;40040;42.706;23.372;2023-10-31T01:57:31;146695.81;;;10.23;100.00
6938;BME280;40040;42.706;23.372;2023-10-31T01:59:58;146697.00;;;10.23;100.00
6938;BME280;40040;42.706;23.372;2023-10-31T02:02:27;146689.63;;;10.20;100.00
6938;BME280;40040;42.706;23.372;2023-10-31T02:04:57;146653.78;;;10.06;100.00
6938;BME280;40040;42.706;23.372;2023-10-31T02:07:24;146641.47;;;10.01;100.00
6938;BME280;40040;42.706;23.372;2023-10-31T02:09:50;146641.47;;;10.01;100.00
6938;BME280;40040;42.706;23.372;2023-10-31T02:12:33;146656.28;;;10.07;100.00
6938;BME280;40040;42.706;23.372;2023-10-31T02:15:00;146668.66;;;10.12;100.00
6938;BME280;40040;42.706;23.372;2023-10-31T02:17:29;146629.13;;;9.96;100.00
6938;BME280;40040;42.706;23.372;2023-10-31T02:19:55;146595.84;;;9.82;100.00
6938;BME280;40040;42.706;23.372;2023-10-31T02:22:24;146577.34;;;9.75;100.00
6938;BME280;40040;42.706;23.372;2023-10-31T02:24:50;146558.88;;;9.67;100.00
6938;BME280;40040;42.706;23.372;2023-10-31T02:27:17;146528.06;;;9.55;100.00
6938;BME280;40040;42.706;23.372;2023-10-31T02:29:44;146463.97;;;9.29;100.00
6938;BME280;40040;42.706;23.372;2023-10-31T02:32:11;146476.28;;;9.34;100.00
6938;BME280;40040;42.706;23.372;2023-10-31T02:34:38;146488.59;;;9.39;100.00
6938;BME280;40040;42.706;23.372;2023-10-31T02:37:04;146519.44;;;9.51;100.00
6938;BME280;40040;42.706;23.372;2023-10-31T02:39:33;146508.31;;;9.47;100.00
6938;BME280;40040;42.706;23.372;2023-10-31T02:42:00;146489.84;;;9.39;100.00
6938;BME280;40040;42.706;23.372;2023-10-31T02:44:27;146476.28;;;9.34;100.00
6938;BME280;40040;42.706;23.372;2023-10-31T02:46:53;146481.22;;;9.36;100.00
6938;BME280;40040;42.706;23.372;2023-10-31T02:49:20;146493.53;;;9.41;100.00
6938;BME280;40040;42.706;23.372;2023-10-31T02:51:47;146482.47;;;9.36;100.00
6938;BME280;40040;42.706;23.372;2023-10-31T02:54:14;146486.16;;;9.38;100.00
6938;BME280;40040;42.706;23.372;2023-10-31T02:56:42;146481.22;;;9.36;100.00
6938;BME280;40040;42.706;23.372;2023-10-31T02:59:09;146498.47;;;9.43;100.00
6938;BME280;40040;42.706;23.372;2023-10-31T03:01:36;146499.66;;;9.43;100.00
6938;BME280;40040;42.706;23.372;2023-10-31T03:04:03;146473.84;;;9.33;100.00
6938;BME280;40040;42.706;23.372;2023-10-31T03:06:29;146488.59;;;9.39;100.00
6938;BME280;40040;42.706;23.372;2023-10-31T03:08:56;146520.66;;;9.52;100.00
6938;BME280;40040;42.706;23.372;2023-10-31T03:11:24;146521.88;;;9.52;100.00
6938;BME280;40040;42.706;23.372;2023-10-31T03:13:52;146530.50;;;9.56;100.00
6938;BME280;40040;42.706;23.372;2023-10-31T03:16:19;146535.44;;;9.58;100.00
6938;BME280;40040;42.706;23.372;2023-10-31T03:18:46;146523.13;;;9.53;100.00
6938;BME280;40040;42.706;23.372;2023-10-31T03:21:13;146503.41;;;9.45;100.00
6938;BME280;40040;42.706;23.372;2023-10-31T03:23:41;146484.91;;;9.37;100.00
6938;BME280;40040;42.706;23.372;2023-10-31T03:26:07;146457.78;;;9.26;100.00
6938;BME280;40040;42.706;23.372;2023-10-31T03:28:34;146434.38;;;9.17;100.00
6938;BME280;40040;42.706;23.372;2023-10-31T03:31:03;146449.16;;;9.23;100.00
6938;BME280;40040;42.706;23.372;2023-10-31T03:33:29;146440.53;;;9.19;100.00
6938;BME280;40040;42.706;23.372;2023-10-31T03:35:57;146419.56;;;9.10;100.00
6938;BME280;40040;42.706;23.372;2023-10-31T03:38:24;146429.44;;;9.15;100.00
6938;BME280;40040;42.706;23.372;2023-10-31T03:40:50;146426.94;;;9.13;100.00
6938;BME280;40040;42.706;23.372;2023-10-31T03:43:18;146426.94;;;9.13;100.00
6938;BME280;40040;42.706;23.372;2023-10-31T03:45:45;146407.25;;;9.05;100.00
6938;BME280;40040;42.706;23.372;2023-10-31T03:48:15;146321.00;;;8.70;100.00
6938;BME280;40040;42.706;23.372;2023-10-31T03:50:42;146403.56;;;9.04;100.00
6938;BME280;40040;42.706;23.372;2023-10-31T03:53:09;146398.63;;;9.02;100.00
6938;BME280;40040;42.706;23.372;2023-10-31T03:55:35;146392.50;;;8.99;100.00
6938;BME280;40040;42.706;23.372;2023-10-31T03:58:02;146390.00;;;8.98;100.00
6938;BME280;40040;42.706;23.372;2023-10-31T04:00:29;146392.50;;;8.99;100.00
6938;BME280;40040;42.706;23.372;2023-10-31T04:02:56;146394.94;;;9.00;100.00
6938;BME280;40040;42.706;23.372;2023-10-31T04:05:24;146371.50;;;8.91;100.00
6938;BME280;40040;42.706;23.372;2023-10-31T04:07:51;146338.25;;;8.77;100.00
6938;BME280;40040;42.706;23.372;2023-10-31T04:10:18;146325.94;;;8.72;100.00
6938;BME280;40040;42.706;23.372;2023-10-31T04:12:45;146281.56;;;8.54;100.00
6938;BME280;40040;42.706;23.372;2023-10-31T04:15:11;146312.38;;;8.67;100.00
6938;BME280;40040;42.706;23.372;2023-10-31T04:17:38;146311.19;;;8.66;100.00
6938;BME280;40040;42.706;23.372;2023-10-31T04:20:06;146306.25;;;8.64;100.00
6938;BME280;40040;42.706;23.372;2023-10-31T04:22:34;146281.56;;;8.54;100.00
6938;BME280;40040;42.706;23.372;2023-10-31T04:25:01;146200.25;;;8.21;100.00
6938;BME280;40040;42.706;23.372;2023-10-31T04:27:28;146159.63;;;8.05;100.00
6938;BME280;40040;42.706;23.372;2023-10-31T04:29:55;146261.88;;;8.46;100.00
6938;BME280;40040;42.706;23.372;2023-10-31T04:32:22;146228.66;;;8.33;100.00
6938;BME280;40040;42.706;23.372;2023-10-31T04:34:48;146197.81;;;8.20;100.00
6938;BME280;40040;42.706;23.372;2023-10-31T04:37:15;146195.34;;;8.19;100.00
6938;BME280;40040;42.706;23.372;2023-10-31T04:39:44;146205.19;;;8.23;100.00
6938;BME280;40040;42.706;23.372;2023-10-31T04:42:10;146210.16;;;8.25;100.00
6938;BME280;40040;42.706;23.372;2023-10-31T04:44:37;146197.81;;;8.20;100.00
6938;BME280;40040;42.706;23.372;2023-10-31T04:47:04;146213.84;;;8.27;100.00
6938;BME280;40040;42.706;23.372;2023-10-31T04:49:34;146195.34;;;8.19;100.00
6938;BME280;40040;42.706;23.372;2023-10-31T04:52:01;146220.03;;;8.29;100.00
6938;BME280;40040;42.706;23.372;2023-10-31T04:54:28;146210.16;;;8.25;100.00
6938;BME280;40040;42.706;23.372;2023-10-31T04:56:56;146229.88;;;8.33;100.00
6938;BME280;40040;42.706;23.372;2023-10-31T04:59:23;146233.56;;;8.35;100.00
6938;BME280;40040;42.706;23.372;2023-10-31T05:01:49;146199.03;;;8.21;100.00
6938;BME280;40040;42.706;23.372;2023-10-31T05:04:17;146231.09;;;8.34;100.00
6938;BME280;40040;42.706;23.372;2023-10-31T05:06:44;146234.78;;;8.35;100.00
6938;BME280;40040;42.706;23.372;2023-10-31T05:09:11;146229.88;;;8.33;100.00
6938;BME280;40040;42.706;23.372;2023-10-31T05:11:38;146212.66;;;8.26;100.00
6938;BME280;40040;42.706;23.372;2023-10-31T05:14:08;146223.72;;;8.31;100.00
6938;BME280;40040;42.706;23.372;2023-10-31T05:16:39;146222.47;;;8.30;100.00
6938;BME280;40040;42.706;23.372;2023-10-31T05:19:06;146210.16;;;8.25;100.00
6938;BME280;40040;42.706;23.372;2023-10-31T05:21:33;146238.50;;;8.37;100.00
6938;BME280;40040;42.706;23.372;2023-10-31T05:24:00;146244.66;;;8.39;100.00
6938;BME280;40040;42.706;23.372;2023-10-31T05:26:26;146252.03;;;8.42;100.00
6938;BME280;40040;42.706;23.372;2023-10-31T05:28:54;146249.56;;;8.41;100.00
6938;BME280;40040;42.706;23.372;2023-10-31T05:31:22;146168.25;;;8.08;100.00
6938;BME280;40040;42.706;23.372;2023-10-31T05:33:49;146202.72;;;8.22;100.00
6938;BME280;40040;42.706;23.372;2023-10-31T05:36:18;146202.72;;;8.22;100.00
6938;BME280;40040;42.706;23.372;2023-10-31T05:38:45;146181.81;;;8.14;100.00
6938;BME280;40040;42.706;23.372;2023-10-31T05:41:12;146180.56;;;8.13;100.00
6938;BME280;40040;42.706;23.372;2023-10-31T05:43:39;146175.63;;;8.11;100.00
6938;BME280;40040;42.706;23.372;2023-10-31T05:46:06;146130.09;;;7.92;100.00
6938;BME280;40040;42.706;23.372;2023-10-31T05:48:38;146132.53;;;7.93;100.00
6938;BME280;40040;42.706;23.372;2023-10-31T05:51:05;146090.69;;;7.76;100.00
6938;BME280;40040;42.706;23.372;2023-10-31T05:53:36;146079.63;;;7.72;100.00
6938;BME280;40040;42.706;23.372;2023-10-31T05:56:04;146038.97;;;7.55;100.00
6938;BME280;40040;42.706;23.372;2023-10-31T05:58:32;146064.84;;;7.66;100.00
6938;BME280;40040;42.706;23.372;2023-10-31T06:00:59;146069.75;;;7.68;100.00
6938;BME280;40040;42.706;23.372;2023-10-31T06:03:26;146090.69;;;7.76;100.00
6938;BME280;40040;42.706;23.372;2023-10-31T06:05:54;146104.22;;;7.82;100.00
6938;BME280;40040;42.706;23.372;2023-10-31T06:08:21;146099.31;;;7.80;100.00
6938;BME280;40040;42.706;23.372;2023-10-31T06:10:49;146136.22;;;7.95;100.00
6938;BME280;40040;42.706;23.372;2023-10-31T06:13:16;146158.38;;;8.04;100.00
6938;BME280;40040;42.706;23.372;2023-10-31T06:15:43;146191.63;;;8.18;100.00
6938;BME280;40040;42.706;23.372;2023-10-31T06:18:10;146227.41;;;8.32;100.00
6938;BME280;40040;42.706;23.372;2023-10-31T06:20:37;146256.94;;;8.44;100.00
6938;BME280;40040;42.706;23.372;2023-10-31T06:23:06;146291.44;;;8.58;100.00
6938;BME280;40040;42.706;23.372;2023-10-31T06:25:33;146292.69;;;8.59;100.00
6938;BME280;40040;42.706;23.372;2023-10-31T06:28:00;146358.00;;;8.85;100.00
6938;BME280;40040;42.706;23.372;2023-10-31T06:30:26;146390.00;;;8.98;100.00
6938;BME280;40040;42.706;23.372;2023-10-31T06:32:53;146431.91;;;9.16;100.00
6938;BME280;40040;42.706;23.372;2023-10-31T06:35:20;146446.69;;;9.22;100.00
6938;BME280;40040;42.706;23.372;2023-10-31T06:37:47;146500.91;;;9.44;100.00
6938;BME280;40040;42.706;23.372;2023-10-31T06:40:15;146546.56;;;9.62;100.00
6938;BME280;40040;42.706;23.372;2023-10-31T06:42:42;146587.22;;;9.79;100.00
6938;BME280;40040;42.706;23.372;2023-10-31T06:45:09;146637.78;;;9.99;100.00
6938;BME280;40040;42.706;23.372;2023-10-31T06:47:36;146678.53;;;10.16;100.00
6938;BME280;40040;42.706;23.372;2023-10-31T06:50:03;146710.59;;;10.29;100.00
6938;BME280;40040;42.706;23.372;2023-10-31T06:52:30;146738.97;;;10.41;100.00
6938;BME280;40040;42.706;23.372;2023-10-31T06:54:57;146768.59;;;10.53;100.00
6938;BME280;40040;42.706;23.372;2023-10-31T06:57:25;146800.63;;;10.66;100.00
6938;BME280;40040;42.706;23.372;2023-10-31T06:59:52;146816.66;;;10.72;100.00
6938;BME280;40040;42.706;23.372;2023-10-31T07:02:19;146856.16;;;10.88;100.00
6938;BME280;40040;42.706;23.372;2023-10-31T07:04:46;146893.22;;;11.03;100.00
6938;BME280;40040;42.706;23.372;2023-10-31T07:07:12;146935.19;;;11.20;100.00
6938;BME280;40040;42.706;23.372;2023-10-31T07:09:39;146968.50;;;11.34;100.00
6938;BME280;40040;42.706;23.372;2023-10-31T07:12:06;147001.81;;;11.48;100.00
6938;BME280;40040;42.706;23.372;2023-10-31T07:14:34;147033.94;;;11.61;100.00
6938;BME280;40040;42.706;23.372;2023-10-31T07:17:01;147061.13;;;11.72;100.00
6938;BME280;40040;42.706;23.372;2023-10-31T07:19:28;147083.34;;;11.81;100.00
6938;BME280;40040;42.706;23.372;2023-10-31T07:21:55;147121.66;;;11.96;100.00
6938;BME280;40040;42.706;23.372;2023-10-31T07:24:21;147167.38;;;12.15;100.00
6938;BME280;40040;42.706;23.372;2023-10-31T07:26:48;147201.97;;;12.29;100.00
6938;BME280;40040;42.706;23.372;2023-10-31T07:29:14;147236.50;;;12.43;100.00
6938;BME280;40040;42.706;23.372;2023-10-31T07:31:42;147263.72;;;12.54;100.00
6938;BME280;40040;42.706;23.372;2023-10-31T07:34:09;147303.25;;;12.70;100.00
6938;BME280;40040;42.706;23.372;2023-10-31T07:36:36;147327.97;;;12.80;100.00
6938;BME280;40040;42.706;23.372;2023-10-31T07:39:04;147407.16;;;13.12;100.00
6938;BME280;40040;42.706;23.372;2023-10-31T07:41:31;147447.91;;;13.29;100.00
6938;BME280;40040;42.706;23.372;2023-10-31T07:43:58;147498.59;;;13.49;100.00
6938;BME280;40040;42.706;23.372;2023-10-31T07:46:25;147538.19;;;13.66;100.00
6938;BME280;40040;42.706;23.372;2023-10-31T07:48:53;147576.53;;;13.81;100.00
6938;BME280;40040;42.706;23.372;2023-10-31T07:51:20;147618.56;;;13.98;100.00
6938;BME280;40040;42.706;23.372;2023-10-31T07:53:46;147660.66;;;14.15;100.00
6938;BME280;40040;42.706;23.372;2023-10-31T07:56:17;147694.09;;;14.29;100.00
6938;BME280;40040;42.706;23.372;2023-10-31T07:58:48;147730.00;;;14.43;100.00
6938;BME280;40040;42.706;23.372;2023-10-31T08:01:16;147760.91;;;14.56;100.00
6938;BME280;40040;42.706;23.372;2023-10-31T08:03:43;147796.81;;;14.71;100.00
6938;BME280;40040;42.706;23.372;2023-10-31T08:06:11;147827.75;;;14.83;100.00
6938;BME280;40040;42.706;23.372;2023-10-31T08:08:38;147883.47;;;15.06;99.11
6938;BME280;40040;42.706;23.372;2023-10-31T08:11:07;147919.34;;;15.20;97.81
6938;BME280;40040;42.706;23.372;2023-10-31T08:13:35;147981.31;;;15.45;97.22
6938;BME280;40040;42.706;23.372;2023-10-31T08:16:02;148045.72;;;15.71;94.87
6938;BME280;40040;42.706;23.372;2023-10-31T08:18:29;148117.53;;;16.01;92.64
6938;BME280;40040;42.706;23.372;2023-10-31T08:20:56;148155.94;;;16.16;91.11
6938;BME280;40040;42.706;23.372;2023-10-31T08:23:25;148170.84;;;16.22;89.80
6938;BME280;40040;42.706;23.372;2023-10-31T08:25:51;148291.09;;;16.71;86.66
6938;BME280;40040;42.706;23.372;2023-10-31T08:28:18;148340.69;;;16.91;84.91
6938;BME280;40040;42.706;23.372;2023-10-31T08:30:45;148392.72;;;17.12;84.10
6938;BME280;40040;42.706;23.372;2023-10-31T08:33:12;148427.44;;;17.26;81.73
6938;BME280;40040;42.706;23.372;2023-10-31T08:35:39;148464.69;;;17.41;81.80
6938;BME280;40040;42.706;23.372;2023-10-31T08:38:06;148506.88;;;17.58;83.08
6938;BME280;40040;42.706;23.372;2023-10-31T08:40:35;148558.97;;;17.79;81.60
6938;BME280;40040;42.706;23.372;2023-10-31T08:43:01;148618.53;;;18.04;79.93
6938;BME280;40040;42.706;23.372;2023-10-31T08:45:29;148668.13;;;18.24;78.14
6938;BME280;40040;42.706;23.372;2023-10-31T08:47:56;148697.94;;;18.36;77.19
6938;BME280;40040;42.706;23.372;2023-10-31T08:50:23;148763.75;;;18.62;76.75
6938;BME280;40040;42.706;23.372;2023-10-31T08:52:50;148815.88;;;18.83;75.65
6938;BME280;40040;42.706;23.372;2023-10-31T08:55:17;148824.56;;;18.87;74.29
6938;BME280;40040;42.706;23.372;2023-10-31T08:57:45;148874.25;;;19.07;74.78
6938;BME280;40040;42.706;23.372;2023-10-31T09:00:12;148921.44;;;19.26;70.84
6938;BME280;40040;42.706;23.372;2023-10-31T09:02:39;148889.13;;;19.13;71.39
6938;BME280;40040;42.706;23.372;2023-10-31T09:05:07;148899.06;;;19.17;72.64
6938;BME280;40040;42.706;23.372;2023-10-31T09:07:33;148884.16;;;19.11;70.59
6938;BME280;40040;42.706;23.372;2023-10-31T09:10:00;148874.25;;;19.07;70.62
6938;BME280;40040;42.706;23.372;2023-10-31T09:12:29;148900.34;;;19.18;73.10
6938;BME280;40040;42.706;23.372;2023-10-31T09:14:57;148978.56;;;19.49;70.03
6938;BME280;40040;42.706;23.372;2023-10-31T09:17:24;149066.78;;;19.85;68.11
6938;BME280;40040;42.706;23.372;2023-10-31T09:19:50;149192.31;;;20.36;66.86
6938;BME280;40040;42.706;23.372;2023-10-31T09:22:17;149314.13;;;20.85;64.41
6938;BME280;40040;42.706;23.372;2023-10-31T09:24:44;149390.00;;;21.15;62.58
6938;BME280;40040;42.706;23.372;2023-10-31T09:27:11;149402.41;;;21.20;61.09
6938;BME280;40040;42.706;23.372;2023-10-31T09:29:37;149391.25;;;21.16;62.09
6938;BME280;40040;42.706;23.372;2023-10-31T09:32:06;149515.59;;;21.66;60.41
6938;BME280;40040;42.706;23.372;2023-10-31T09:34:33;149587.78;;;21.95;57.76
6938;BME280;40040;42.706;23.372;2023-10-31T09:37:00;149737.16;;;22.56;55.79
6938;BME280;40040;42.706;23.372;2023-10-31T09:39:27;149814.31;;;22.87;55.54
6938;BME280;40040;42.706;23.372;2023-10-31T09:41:54;149861.63;;;23.06;53.06
6938;BME280;40040;42.706;23.372;2023-10-31T09:44:21;149860.38;;;23.05;52.56
6938;BME280;40040;42.706;23.372;2023-10-31T09:46:49;149936.41;;;23.36;52.08
6938;BME280;40040;42.706;23.372;2023-10-31T09:49:18;149932.63;;;23.34;51.01
6938;BME280;40040;42.706;23.372;2023-10-31T09:51:46;149937.59;;;23.36;52.41
6938;BME280;40040;42.706;23.372;2023-10-31T09:54:16;149915.19;;;23.27;50.53
6938;BME280;40040;42.706;23.372;2023-10-31T09:56:43;150023.53;;;23.71;50.54
6938;BME280;40040;42.706;23.372;2023-10-31T09:59:10;150100.84;;;24.02;48.73
6938;BME280;40040;42.706;23.372;2023-10-31T10:01:37;150236.63;;;24.57;49.20
6938;BME280;40040;42.706;23.372;2023-10-31T10:04:05;150299.00;;;24.82;47.20
6938;BME280;40040;42.706;23.372;2023-10-31T10:06:33;150274.09;;;24.72;47.49
6938;BME280;40040;42.706;23.372;2023-10-31T10:09:00;150242.88;;;24.60;46.99
6938;BME280;40040;42.706;23.372;2023-10-31T10:11:31;150270.31;;;24.71;46.78
6938;BME280;40040;42.706;23.372;2023-10-31T10:13:58;150267.84;;;24.70;45.79
6938;BME280;40040;42.706;23.372;2023-10-31T10:16:29;150285.28;;;24.77;45.16
6938;BME280;40040;42.706;23.372;2023-10-31T10:18:56;150390.00;;;25.19;44.14
6938;BME280;40040;42.706;23.372;2023-10-31T10:21:23;150399.94;;;25.23;44.74
6938;BME280;40040;42.706;23.372;2023-10-31T10:23:52;150447.34;;;25.42;43.52
6938;BME280;40040;42.706;23.372;2023-10-31T10:26:19;150489.78;;;25.59;43.73
6938;BME280;40040;42.706;23.372;2023-10-31T10:28:51;150585.84;;;25.98;43.68
6938;BME280;40040;42.706;23.372;2023-10-31T10:31:18;150693.16;;;26.41;42.02
6938;BME280;40040;42.706;23.372;2023-10-31T10:33:45;150744.28;;;26.61;41.89
6938;BME280;40040;42.706;23.372;2023-10-31T10:36:12;150799.22;;;26.84;40.73
6938;BME280;40040;42.706;23.372;2023-10-31T10:38:43;150856.66;;;27.07;40.28
6938;BME280;40040;42.706;23.372;2023-10-31T10:41:16;150864.13;;;27.10;38.44
6938;BME280;40040;42.706;23.372;2023-10-31T10:43:47;150877.88;;;27.15;40.13
6938;BME280;40040;42.706;23.372;2023-10-31T10:46:17;150836.69;;;26.99;38.93
6938;BME280;40040;42.706;23.372;2023-10-31T10:48:47;150899.06;;;27.24;38.54
6938;BME280;40040;42.706;23.372;2023-10-31T10:51:21;150911.56;;;27.29;37.42
6938;BME280;40040;42.706;23.372;2023-10-31T10:53:57;150940.34;;;27.40;37.16
6938;BME280;40040;42.706;23.372;2023-10-31T10:56:31;151002.75;;;27.65;36.55
6938;BME280;40040;42.706;23.372;2023-10-31T10:59:08;151048.97;;;27.84;36.07
6938;BME280;40040;42.706;23.372;2023-10-31T11:01:41;151058.94;;;27.88;35.49
6938;BME280;40040;42.706;23.372;2023-10-31T11:04:09;150989.00;;;27.60;34.52
6938;BME280;40040;42.706;23.372;2023-10-31T11:06:37;150949.09;;;27.44;34.85
6938;BME280;40040;42.706;23.372;2023-10-31T11:09:04;150846.66;;;27.03;36.20
6938;BME280;40040;42.706;23.372;2023-10-31T11:11:34;150819.22;;;26.92;36.11
6938;BME280;40040;42.706;23.372;2023-10-31T11:14:01;150809.22;;;26.88;36.43
6938;BME280;40040;42.706;23.372;2023-10-31T11:16:33;150799.22;;;26.84;36.31
6938;BME280;40040;42.706;23.372;2023-10-31T11:19:02;150793.00;;;26.81;35.60
6938;BME280;40040;42.706;23.372;2023-10-31T11:21:29;150781.75;;;26.77;35.77
6938;BME280;40040;42.706;23.372;2023-10-31T11:23:59;150775.53;;;26.74;36.43
6938;BME280;40040;42.706;23.372;2023-10-31T11:26:27;150724.34;;;26.53;36.52
6938;BME280;40040;42.706;23.372;2023-10-31T11:29:04;150786.75;;;26.79;37.49
6938;BME280;40040;42.706;23.372;2023-10-31T11:31:31;150773.03;;;26.73;37.33
6938;BME280;40040;42.706;23.372;2023-10-31T11:34:00;150743.03;;;26.61;37.04
6938;BME280;40040;42.706;23.372;2023-10-31T11:36:30;150779.28;;;26.76;37.91
6938;BME280;40040;42.706;23.372;2023-10-31T11:39:10;150736.81;;;26.58;37.77
6938;BME280;40040;42.706;23.372;2023-10-31T11:41:38;150735.56;;;26.58;38.51
6938;BME280;40040;42.706;23.372;2023-10-31T11:44:07;150607.06;;;26.06;39.09
6938;BME280;40040;42.706;23.372;2023-10-31T11:46:33;150515.97;;;25.70;39.98
6938;BME280;40040;42.706;23.372;2023-10-31T11:49:01;150432.38;;;25.36;40.98
6938;BME280;40040;42.706;23.372;2023-10-31T11:51:30;150341.38;;;24.99;41.63
6938;BME280;40040;42.706;23.372;2023-10-31T11:53:59;150323.91;;;24.92;42.26
6938;BME280;40040;42.706;23.372;2023-10-31T11:56:26;150306.47;;;24.85;42.58
6938;BME280;40040;42.706;23.372;2023-10-31T11:58:57;150282.81;;;24.76;42.98
6938;BME280;40040;42.706;23.372;2023-10-31T12:01:25;150292.75;;;24.80;42.56
6938;BME280;40040;42.706;23.372;2023-10-31T12:03:52;150306.47;;;24.85;42.81
6938;BME280;40040;42.706;23.372;2023-10-31T12:06:19;150311.47;;;24.87;42.69
6938;BME280;40040;42.706;23.372;2023-10-31T12:08:47;150305.22;;;24.85;42.98
6938;BME280;40040;42.706;23.372;2023-10-31T12:11:16;150295.28;;;24.81;43.22
6938;BME280;40040;42.706;23.372;2023-10-31T12:13:53;150302.72;;;24.84;44.93
6938;BME280;40040;42.706;23.372;2023-10-31T12:16:26;150330.16;;;24.95;43.30
6938;BME280;40040;42.706;23.372;2023-10-31T12:18:57;150345.09;;;25.01;43.15
6938;BME280;40040;42.706;23.372;2023-10-31T12:21:39;150304.00;;;24.84;42.02
6938;BME280;40040;42.706;23.372;2023-10-31T12:24:10;150252.81;;;24.64;43.22
6938;BME280;40040;42.706;23.372;2023-10-31T12:26:39;150281.56;;;24.75;43.65
6938;BME280;40040;42.706;23.372;2023-10-31T12:29:10;150289.00;;;24.78;43.59
6938;BME280;40040;42.706;23.372;2023-10-31T12:31:44;150306.47;;;24.85;44.30
6938;BME280;40040;42.706;23.372;2023-10-31T12:34:12;150322.66;;;24.92;43.70
6938;BME280;40040;42.706;23.372;2023-10-31T12:36:40;150322.66;;;24.92;43.91
6938;BME280;40040;42.706;23.372;2023-10-31T12:39:08;150310.19;;;24.87;44.51
6938;BME280;40040;42.706;23.372;2023-10-31T12:41:36;150287.75;;;24.78;44.70
6938;BME280;40040;42.706;23.372;2023-10-31T12:44:04;150267.84;;;24.70;44.15
6938;BME280;40040;42.706;23.372;2023-10-31T12:46:32;150280.28;;;24.75;43.41
6938;BME280;40040;42.706;23.372;2023-10-31T12:49:02;150299.00;;;24.82;43.19
6938;BME280;40040;42.706;23.372;2023-10-31T12:51:29;150290.28;;;24.79;43.55